sensor_id;sensor_type;location;lat;lon;timestamp;temperature;humidity
12977;DHT22;6553;48.412;9.514;2023-12-20T00:01:22;18.90;57.40
12977;DHT22;6553;48.412;9.514;2023-12-20T00:03:48;18.90;57.40
12977;DHT22;6553;48.412;9.514;2023-12-20T00:06:14;18.80;57.30
12977;DHT22;6553;48.412;9.514;2023-12-20T00:08:40;18.90;57.40
12977;DHT22;6553;48.412;9.514;2023-12-20T00:11:05;18.90;57.40
12977;DHT22;6553;48.412;9.514;2023-12-20T00:13:31;18.90;57.40
12977;DHT22;6553;48.412;9.514;2023-12-20T00:15:57;18.90;57.40
12977;DHT22;6553;48.412;9.514;2023-12-20T00:18:23;18.90;57.40
12977;DHT22;6553;48.412;9.514;2023-12-20T00:20:49;18.90;57.40
12977;DHT22;6553;48.412;9.514;2023-12-20T00:23:14;18.90;57.40
12977;DHT22;6553;48.412;9.514;2023-12-20T00:25:40;18.90;57.40
12977;DHT22;6553;48.412;9.514;2023-12-20T00:28:06;18.90;57.40
12977;DHT22;6553;48.412;9.514;2023-12-20T00:30:32;18.90;57.50
12977;DHT22;6553;48.412;9.514;2023-12-20T00:32:57;18.90;57.40
12977;DHT22;6553;48.412;9.514;2023-12-20T00:35:23;18.90;57.40
12977;DHT22;6553;48.412;9.514;2023-12-20T00:37:49;18.90;57.40
12977;DHT22;6553;48.412;9.514;2023-12-20T00:40:15;18.90;57.40
12977;DHT22;6553;48.412;9.514;2023-12-20T00:42:41;18.90;57.40
12977;DHT22;6553;48.412;9.514;2023-12-20T00:45:07;18.90;57.40
12977;DHT22;6553;48.412;9.514;2023-12-20T00:47:33;18.90;57.40
12977;DHT22;6553;48.412;9.514;2023-12-20T00:49:59;18.90;57.40
12977;DHT22;6553;48.412;9.514;2023-12-20T00:52:25;18.90;57.40
12977;DHT22;6553;48.412;9.514;2023-12-20T00:54:51;18.90;57.40
12977;DHT22;6553;48.412;9.514;2023-12-20T00:57:17;18.90;57.40
12977;DHT22;6553;48.412;9.514;2023-12-20T00:59:43;18.90;57.40
12977;DHT22;6553;48.412;9.514;2023-12-20T01:02:09;18.90;57.40
12977;DHT22;6553;48.412;9.514;2023-12-20T01:04:35;18.90;57.40
12977;DHT22;6553;48.412;9.514;2023-12-20T01:07:01;18.90;57.40
12977;DHT22;6553;48.412;9.514;2023-12-20T01:09:27;18.90;57.40
12977;DHT22;6553;48.412;9.514;2023-12-20T01:11:53;18.90;57.40
12977;DHT22;6553;48.412;9.514;2023-12-20T01:14:19;18.90;57.40
12977;DHT22;6553;48.412;9.514;2023-12-20T01:16:45;18.80;57.30
12977;DHT22;6553;48.412;9.514;2023-12-20T01:19:11;18.90;57.50
12977;DHT22;6553;48.412;9.514;2023-12-20T01:21:36;18.90;57.40
12977;DHT22;6553;48.412;9.514;2023-12-20T01:24:02;18.90;57.40
12977;DHT22;6553;48.412;9.514;2023-12-20T01:26:28;18.90;57.40
12977;DHT22;6553;48.412;9.514;2023-12-20T01:28:54;18.90;57.40
12977;DHT22;6553;48.412;9.514;2023-12-20T01:31:19;18.90;57.40
12977;DHT22;6553;48.412;9.514;2023-12-20T01:33:45;18.90;57.40
12977;DHT22;6553;48.412;9.514;2023-12-20T01:36:11;18.90;57.40
12977;DHT22;6553;48.412;9.514;2023-12-20T01:38:37;18.90;57.40
12977;DHT22;6553;48.412;9.514;2023-12-20T01:41:03;18.90;57.40
12977;DHT22;6553;48.412;9.514;2023-12-20T01:43:30;18.90;57.40
12977;DHT22;6553;48.412;9.514;2023-12-20T01:45:59;18.90;57.40
12977;DHT22;6553;48.412;9.514;2023-12-20T01:48:26;18.90;57.40
12977;DHT22;6553;48.412;9.514;2023-12-20T01:50:53;18.90;58.00
12977;DHT22;6553;48.412;9.514;2023-12-20T01:53:22;18.90;57.40
12977;DHT22;6553;48.412;9.514;2023-12-20T01:55:50;18.90;57.40
12977;DHT22;6553;48.412;9.514;2023-12-20T01:58:19;18.90;57.40
12977;DHT22;6553;48.412;9.514;2023-12-20T02:00:46;18.90;57.40
12977;DHT22;6553;48.412;9.514;2023-12-20T02:03:13;18.90;57.40
12977;DHT22;6553;48.412;9.514;2023-12-20T02:05:39;18.90;57.40
12977;DHT22;6553;48.412;9.514;2023-12-20T02:08:06;18.90;57.40
12977;DHT22;6553;48.412;9.514;2023-12-20T02:10:32;18.90;57.40
12977;DHT22;6553;48.412;9.514;2023-12-20T02:12:58;18.90;57.40
12977;DHT22;6553;48.412;9.514;2023-12-20T02:15:24;18.90;57.40
12977;DHT22;6553;48.412;9.514;2023-12-20T02:17:50;18.90;57.40
12977;DHT22;6553;48.412;9.514;2023-12-20T02:20:16;18.90;57.40
12977;DHT22;6553;48.412;9.514;2023-12-20T02:22:42;18.90;57.40
12977;DHT22;6553;48.412;9.514;2023-12-20T02:25:08;18.90;57.40
12977;DHT22;6553;48.412;9.514;2023-12-20T02:27:35;18.90;57.40
12977;DHT22;6553;48.412;9.514;2023-12-20T02:30:00;18.90;57.40
12977;DHT22;6553;48.412;9.514;2023-12-20T02:32:26;18.90;57.40
12977;DHT22;6553;48.412;9.514;2023-12-20T02:34:54;18.90;57.40
12977;DHT22;6553;48.412;9.514;2023-12-20T02:37:20;18.90;57.40
12977;DHT22;6553;48.412;9.514;2023-12-20T02:39:46;18.90;57.40
12977;DHT22;6553;48.412;9.514;2023-12-20T02:42:11;18.90;57.40
12977;DHT22;6553;48.412;9.514;2023-12-20T02:44:37;18.90;57.40
12977;DHT22;6553;48.412;9.514;2023-12-20T02:47:03;18.90;57.40
12977;DHT22;6553;48.412;9.514;2023-12-20T02:49:29;18.90;57.40
12977;DHT22;6553;48.412;9.514;2023-12-20T02:51:54;18.90;57.40
12977;DHT22;6553;48.412;9.514;2023-12-20T02:54:20;18.90;57.40
12977;DHT22;6553;48.412;9.514;2023-12-20T02:56:47;18.90;57.50
12977;DHT22;6553;48.412;9.514;2023-12-20T02:59:13;18.90;57.40
12977;DHT22;6553;48.412;9.514;2023-12-20T03:01:43;18.90;57.40
12977;DHT22;6553;48.412;9.514;2023-12-20T03:04:10;18.90;57.40
12977;DHT22;6553;48.412;9.514;2023-12-20T03:06:37;18.90;57.40
12977;DHT22;6553;48.412;9.514;2023-12-20T03:09:03;18.90;57.40
12977;DHT22;6553;48.412;9.514;2023-12-20T03:11:30;18.90;57.40
12977;DHT22;6553;48.412;9.514;2023-12-20T03:13:56;18.90;57.40
12977;DHT22;6553;48.412;9.514;2023-12-20T03:16:22;18.90;57.40
12977;DHT22;6553;48.412;9.514;2023-12-20T03:18:48;18.90;57.40
12977;DHT22;6553;48.412;9.514;2023-12-20T03:21:14;18.90;57.40
12977;DHT22;6553;48.412;9.514;2023-12-20T03:23:41;18.90;57.50
12977;DHT22;6553;48.412;9.514;2023-12-20T03:26:07;18.90;57.50
12977;DHT22;6553;48.412;9.514;2023-12-20T03:28:34;18.90;57.40
12977;DHT22;6553;48.412;9.514;2023-12-20T03:31:00;18.90;57.50
12977;DHT22;6553;48.412;9.514;2023-12-20T03:33:27;18.90;57.50
12977;DHT22;6553;48.412;9.514;2023-12-20T03:35:53;18.90;57.50
12977;DHT22;6553;48.412;9.514;2023-12-20T03:38:19;18.90;57.50
12977;DHT22;6553;48.412;9.514;2023-12-20T03:40:46;18.90;57.50
12977;DHT22;6553;48.412;9.514;2023-12-20T03:43:11;18.90;57.60
12977;DHT22;6553;48.412;9.514;2023-12-20T03:45:37;18.90;57.60
12977;DHT22;6553;48.412;9.514;2023-12-20T03:48:03;18.90;57.60
12977;DHT22;6553;48.412;9.514;2023-12-20T03:50:29;18.90;57.60
12977;DHT22;6553;48.412;9.514;2023-12-20T03:52:55;18.90;57.60
12977;DHT22;6553;48.412;9.514;2023-12-20T03:55:20;18.90;57.60
12977;DHT22;6553;48.412;9.514;2023-12-20T03:57:46;18.90;57.60
12977;DHT22;6553;48.412;9.514;2023-12-20T04:00:12;18.90;57.60
12977;DHT22;6553;48.412;9.514;2023-12-20T04:02:39;18.90;57.60
12977;DHT22;6553;48.412;9.514;2023-12-20T04:05:08;18.90;57.60
12977;DHT22;6553;48.412;9.514;2023-12-20T04:07:35;18.90;57.60
12977;DHT22;6553;48.412;9.514;2023-12-20T04:10:02;18.90;57.60
12977;DHT22;6553;48.412;9.514;2023-12-20T04:12:29;18.90;57.60
12977;DHT22;6553;48.412;9.514;2023-12-20T04:14:55;18.90;57.60
12977;DHT22;6553;48.412;9.514;2023-12-20T04:17:22;18.90;57.60
12977;DHT22;6553;48.412;9.514;2023-12-20T04:19:51;19.00;57.70
12977;DHT22;6553;48.412;9.514;2023-12-20T04:22:18;19.00;57.70
12977;DHT22;6553;48.412;9.514;2023-12-20T04:24:44;19.00;57.70
12977;DHT22;6553;48.412;9.514;2023-12-20T04:27:10;18.90;57.60
12977;DHT22;6553;48.412;9.514;2023-12-20T04:29:36;19.00;57.70
12977;DHT22;6553;48.412;9.514;2023-12-20T04:32:02;18.90;57.60
12977;DHT22;6553;48.412;9.514;2023-12-20T04:34:29;18.90;57.70
12977;DHT22;6553;48.412;9.514;2023-12-20T04:36:55;18.90;57.70
12977;DHT22;6553;48.412;9.514;2023-12-20T04:39:20;18.90;57.70
12977;DHT22;6553;48.412;9.514;2023-12-20T04:41:47;18.90;57.70
12977;DHT22;6553;48.412;9.514;2023-12-20T04:44:15;18.90;57.70
12977;DHT22;6553;48.412;9.514;2023-12-20T04:46:41;18.90;57.70
12977;DHT22;6553;48.412;9.514;2023-12-20T04:49:07;18.90;57.70
12977;DHT22;6553;48.412;9.514;2023-12-20T04:51:33;18.90;57.70
12977;DHT22;6553;48.412;9.514;2023-12-20T04:54:00;18.90;57.70
12977;DHT22;6553;48.412;9.514;2023-12-20T04:56:25;18.90;57.70
12977;DHT22;6553;48.412;9.514;2023-12-20T04:58:51;19.00;57.80
12977;DHT22;6553;48.412;9.514;2023-12-20T05:01:17;18.90;57.70
12977;DHT22;6553;48.412;9.514;2023-12-20T05:03:43;19.00;57.80
12977;DHT22;6553;48.412;9.514;2023-12-20T05:06:09;18.90;57.70
12977;DHT22;6553;48.412;9.514;2023-12-20T05:08:36;18.90;57.70
12977;DHT22;6553;48.412;9.514;2023-12-20T05:11:02;18.90;57.70
12977;DHT22;6553;48.412;9.514;2023-12-20T05:13:28;18.90;57.70
12977;DHT22;6553;48.412;9.514;2023-12-20T05:15:54;18.90;57.70
12977;DHT22;6553;48.412;9.514;2023-12-20T05:18:21;18.90;57.70
12977;DHT22;6553;48.412;9.514;2023-12-20T05:20:47;18.90;57.70
12977;DHT22;6553;48.412;9.514;2023-12-20T05:23:13;18.90;57.70
12977;DHT22;6553;48.412;9.514;2023-12-20T05:25:39;19.00;57.70
12977;DHT22;6553;48.412;9.514;2023-12-20T05:28:05;18.90;57.70
12977;DHT22;6553;48.412;9.514;2023-12-20T05:30:31;18.90;57.70
12977;DHT22;6553;48.412;9.514;2023-12-20T05:32:57;18.90;57.70
12977;DHT22;6553;48.412;9.514;2023-12-20T05:35:22;18.90;57.70
12977;DHT22;6553;48.412;9.514;2023-12-20T05:37:49;18.90;57.70
12977;DHT22;6553;48.412;9.514;2023-12-20T05:40:15;18.90;57.70
12977;DHT22;6553;48.412;9.514;2023-12-20T05:42:41;18.90;57.80
12977;DHT22;6553;48.412;9.514;2023-12-20T05:45:07;18.90;57.70
12977;DHT22;6553;48.412;9.514;2023-12-20T05:47:33;18.90;57.70
12977;DHT22;6553;48.412;9.514;2023-12-20T05:49:59;18.90;57.70
12977;DHT22;6553;48.412;9.514;2023-12-20T05:52:24;18.90;57.70
12977;DHT22;6553;48.412;9.514;2023-12-20T05:54:50;18.90;57.70
12977;DHT22;6553;48.412;9.514;2023-12-20T05:57:16;18.90;57.80
12977;DHT22;6553;48.412;9.514;2023-12-20T05:59:42;18.90;57.70
12977;DHT22;6553;48.412;9.514;2023-12-20T06:02:07;19.00;57.90
12977;DHT22;6553;48.412;9.514;2023-12-20T06:04:33;19.00;57.80
12977;DHT22;6553;48.412;9.514;2023-12-20T06:06:59;18.90;57.70
12977;DHT22;6553;48.412;9.514;2023-12-20T06:09:29;18.90;57.70
12977;DHT22;6553;48.412;9.514;2023-12-20T06:11:55;19.00;57.80
12977;DHT22;6553;48.412;9.514;2023-12-20T06:14:21;19.00;57.90
12977;DHT22;6553;48.412;9.514;2023-12-20T06:16:47;18.90;57.80
12977;DHT22;6553;48.412;9.514;2023-12-20T06:19:12;19.00;57.90
12977;DHT22;6553;48.412;9.514;2023-12-20T06:21:39;18.90;58.40
12977;DHT22;6553;48.412;9.514;2023-12-20T06:24:05;19.00;57.90
12977;DHT22;6553;48.412;9.514;2023-12-20T06:26:30;19.00;57.90
12977;DHT22;6553;48.412;9.514;2023-12-20T06:28:56;19.00;57.90
12977;DHT22;6553;48.412;9.514;2023-12-20T06:31:22;19.00;57.90
12977;DHT22;6553;48.412;9.514;2023-12-20T06:33:48;19.00;57.90
12977;DHT22;6553;48.412;9.514;2023-12-20T06:36:23;19.00;57.90
12977;DHT22;6553;48.412;9.514;2023-12-20T06:38:49;19.00;58.00
12977;DHT22;6553;48.412;9.514;2023-12-20T06:41:15;18.90;57.90
12977;DHT22;6553;48.412;9.514;2023-12-20T06:43:42;18.90;57.90
12977;DHT22;6553;48.412;9.514;2023-12-20T06:46:08;19.00;58.00
12977;DHT22;6553;48.412;9.514;2023-12-20T06:48:34;19.00;58.00
12977;DHT22;6553;48.412;9.514;2023-12-20T06:51:01;19.00;57.90
12977;DHT22;6553;48.412;9.514;2023-12-20T06:53:27;18.90;57.90
12977;DHT22;6553;48.412;9.514;2023-12-20T06:55:54;19.00;58.00
12977;DHT22;6553;48.412;9.514;2023-12-20T06:58:22;19.00;58.00
12977;DHT22;6553;48.412;9.514;2023-12-20T07:00:48;19.00;58.00
12977;DHT22;6553;48.412;9.514;2023-12-20T07:03:14;19.00;58.00
12977;DHT22;6553;48.412;9.514;2023-12-20T07:05:40;19.00;58.00
12977;DHT22;6553;48.412;9.514;2023-12-20T07:08:06;18.90;57.90
12977;DHT22;6553;48.412;9.514;2023-12-20T07:10:32;19.00;58.00
12977;DHT22;6553;48.412;9.514;2023-12-20T07:12:58;19.00;58.00
12977;DHT22;6553;48.412;9.514;2023-12-20T07:15:24;19.00;58.00
12977;DHT22;6553;48.412;9.514;2023-12-20T07:17:49;19.00;58.00
12977;DHT22;6553;48.412;9.514;2023-12-20T07:20:15;19.00;58.00
12977;DHT22;6553;48.412;9.514;2023-12-20T07:22:41;19.00;58.00
12977;DHT22;6553;48.412;9.514;2023-12-20T07:25:07;19.00;58.00
12977;DHT22;6553;48.412;9.514;2023-12-20T07:27:33;19.00;58.10
12977;DHT22;6553;48.412;9.514;2023-12-20T07:29:59;19.00;58.00
12977;DHT22;6553;48.412;9.514;2023-12-20T07:32:25;19.00;58.10
12977;DHT22;6553;48.412;9.514;2023-12-20T07:34:50;19.00;58.10
12977;DHT22;6553;48.412;9.514;2023-12-20T07:37:16;19.00;58.10
12977;DHT22;6553;48.412;9.514;2023-12-20T07:39:42;19.00;58.10
12977;DHT22;6553;48.412;9.514;2023-12-20T07:42:08;19.00;58.10
12977;DHT22;6553;48.412;9.514;2023-12-20T07:44:34;19.00;58.10
12977;DHT22;6553;48.412;9.514;2023-12-20T07:47:03;19.00;58.10
12977;DHT22;6553;48.412;9.514;2023-12-20T07:49:30;19.00;58.10
12977;DHT22;6553;48.412;9.514;2023-12-20T07:51:57;18.90;58.10
12977;DHT22;6553;48.412;9.514;2023-12-20T07:54:22;19.00;58.10
12977;DHT22;6553;48.412;9.514;2023-12-20T07:56:49;18.90;58.00
12977;DHT22;6553;48.412;9.514;2023-12-20T07:59:15;19.00;58.10
12977;DHT22;6553;48.412;9.514;2023-12-20T08:01:40;19.00;58.10
12977;DHT22;6553;48.412;9.514;2023-12-20T08:04:07;19.00;58.10
12977;DHT22;6553;48.412;9.514;2023-12-20T08:06:33;19.00;58.10
12977;DHT22;6553;48.412;9.514;2023-12-20T08:08:59;19.00;58.10
12977;DHT22;6553;48.412;9.514;2023-12-20T08:11:24;19.00;58.10
12977;DHT22;6553;48.412;9.514;2023-12-20T08:13:50;19.00;58.10
12977;DHT22;6553;48.412;9.514;2023-12-20T08:16:16;19.00;58.70
12977;DHT22;6553;48.412;9.514;2023-12-20T08:18:43;19.00;58.10
12977;DHT22;6553;48.412;9.514;2023-12-20T08:21:09;19.00;58.10
12977;DHT22;6553;48.412;9.514;2023-12-20T08:23:35;19.00;58.10
12977;DHT22;6553;48.412;9.514;2023-12-20T08:26:07;19.00;58.10
12977;DHT22;6553;48.412;9.514;2023-12-20T08:28:34;19.00;58.10
12977;DHT22;6553;48.412;9.514;2023-12-20T08:31:00;19.00;58.20
12977;DHT22;6553;48.412;9.514;2023-12-20T08:33:26;19.00;58.10
12977;DHT22;6553;48.412;9.514;2023-12-20T08:35:52;19.00;58.10
12977;DHT22;6553;48.412;9.514;2023-12-20T08:38:17;19.00;58.10
12977;DHT22;6553;48.412;9.514;2023-12-20T08:40:43;19.00;58.10
12977;DHT22;6553;48.412;9.514;2023-12-20T08:43:10;19.00;58.20
12977;DHT22;6553;48.412;9.514;2023-12-20T08:45:36;19.00;58.10
12977;DHT22;6553;48.412;9.514;2023-12-20T08:48:02;19.00;58.10
12977;DHT22;6553;48.412;9.514;2023-12-20T08:50:28;19.00;58.10
12977;DHT22;6553;48.412;9.514;2023-12-20T08:52:54;19.00;58.10
12977;DHT22;6553;48.412;9.514;2023-12-20T08:55:20;19.00;58.10
12977;DHT22;6553;48.412;9.514;2023-12-20T08:57:46;19.00;58.10
12977;DHT22;6553;48.412;9.514;2023-12-20T09:00:13;19.00;58.20
12977;DHT22;6553;48.412;9.514;2023-12-20T09:02:39;19.00;58.10
12977;DHT22;6553;48.412;9.514;2023-12-20T09:05:05;19.00;58.10
12977;DHT22;6553;48.412;9.514;2023-12-20T09:07:31;19.00;58.20
12977;DHT22;6553;48.412;9.514;2023-12-20T09:09:58;19.00;58.10
12977;DHT22;6553;48.412;9.514;2023-12-20T09:12:24;19.00;58.10
12977;DHT22;6553;48.412;9.514;2023-12-20T09:14:51;19.00;58.10
12977;DHT22;6553;48.412;9.514;2023-12-20T09:17:18;19.00;58.20
12977;DHT22;6553;48.412;9.514;2023-12-20T09:19:45;19.00;58.10
12977;DHT22;6553;48.412;9.514;2023-12-20T09:22:11;19.00;58.10
12977;DHT22;6553;48.412;9.514;2023-12-20T09:24:37;19.00;58.20
12977;DHT22;6553;48.412;9.514;2023-12-20T09:27:04;19.00;58.10
12977;DHT22;6553;48.412;9.514;2023-12-20T09:29:31;19.00;58.10
12977;DHT22;6553;48.412;9.514;2023-12-20T09:31:57;19.00;58.20
12977;DHT22;6553;48.412;9.514;2023-12-20T09:34:23;19.00;58.20
12977;DHT22;6553;48.412;9.514;2023-12-20T09:36:49;19.00;58.10
12977;DHT22;6553;48.412;9.514;2023-12-20T09:39:19;19.00;58.20
12977;DHT22;6553;48.412;9.514;2023-12-20T09:42:06;19.00;58.20
12977;DHT22;6553;48.412;9.514;2023-12-20T09:44:33;19.00;58.10
12977;DHT22;6553;48.412;9.514;2023-12-20T09:47:03;19.00;58.20
12977;DHT22;6553;48.412;9.514;2023-12-20T09:49:30;19.00;58.10
12977;DHT22;6553;48.412;9.514;2023-12-20T09:51:56;19.00;58.20
12977;DHT22;6553;48.412;9.514;2023-12-20T09:54:23;19.00;58.20
12977;DHT22;6553;48.412;9.514;2023-12-20T09:56:49;19.00;58.10
12977;DHT22;6553;48.412;9.514;2023-12-20T09:59:15;19.00;58.10
12977;DHT22;6553;48.412;9.514;2023-12-20T10:01:42;19.00;58.20
12977;DHT22;6553;48.412;9.514;2023-12-20T10:04:10;19.00;58.20
12977;DHT22;6553;48.412;9.514;2023-12-20T10:06:44;19.10;58.30
12977;DHT22;6553;48.412;9.514;2023-12-20T10:09:12;19.00;58.20
12977;DHT22;6553;48.412;9.514;2023-12-20T10:11:38;19.00;58.20
12977;DHT22;6553;48.412;9.514;2023-12-20T10:14:06;19.10;58.30
12977;DHT22;6553;48.412;9.514;2023-12-20T10:16:33;19.10;58.20
12977;DHT22;6553;48.412;9.514;2023-12-20T10:18:59;19.10;58.20
12977;DHT22;6553;48.412;9.514;2023-12-20T10:21:29;19.10;58.20
12977;DHT22;6553;48.412;9.514;2023-12-20T10:23:57;19.10;58.20
12977;DHT22;6553;48.412;9.514;2023-12-20T10:26:25;19.10;58.30
12977;DHT22;6553;48.412;9.514;2023-12-20T10:28:54;19.10;58.30
12977;DHT22;6553;48.412;9.514;2023-12-20T10:33:53;19.10;58.30
12977;DHT22;6553;48.412;9.514;2023-12-20T10:36:18;19.10;58.30
12977;DHT22;6553;48.412;9.514;2023-12-20T10:38:44;19.10;58.30
12977;DHT22;6553;48.412;9.514;2023-12-20T10:41:12;19.10;58.30
12977;DHT22;6553;48.412;9.514;2023-12-20T10:43:43;19.10;58.30
12977;DHT22;6553;48.412;9.514;2023-12-20T10:46:10;19.10;58.30
12977;DHT22;6553;48.412;9.514;2023-12-20T10:48:36;19.10;58.90
12977;DHT22;6553;48.412;9.514;2023-12-20T10:51:05;19.10;58.30
12977;DHT22;6553;48.412;9.514;2023-12-20T10:53:32;19.10;58.30
12977;DHT22;6553;48.412;9.514;2023-12-20T10:56:00;19.10;58.30
12977;DHT22;6553;48.412;9.514;2023-12-20T10:58:29;19.10;58.30
12977;DHT22;6553;48.412;9.514;2023-12-20T11:01:02;19.10;58.30
12977;DHT22;6553;48.412;9.514;2023-12-20T11:03:35;19.10;58.30
12977;DHT22;6553;48.412;9.514;2023-12-20T11:09:22;19.10;58.30
12977;DHT22;6553;48.412;9.514;2023-12-20T11:14:45;19.10;58.30
12977;DHT22;6553;48.412;9.514;2023-12-20T11:17:13;19.00;58.20
12977;DHT22;6553;48.412;9.514;2023-12-20T11:22:25;19.10;58.30
12977;DHT22;6553;48.412;9.514;2023-12-20T11:24:53;19.10;58.30
12977;DHT22;6553;48.412;9.514;2023-12-20T11:27:21;19.10;58.30
12977;DHT22;6553;48.412;9.514;2023-12-20T11:29:56;19.10;58.30
12977;DHT22;6553;48.412;9.514;2023-12-20T11:34:59;19.10;58.30
12977;DHT22;6553;48.412;9.514;2023-12-20T11:37:36;19.10;58.20
12977;DHT22;6553;48.412;9.514;2023-12-20T11:40:06;19.10;58.30
12977;DHT22;6553;48.412;9.514;2023-12-20T11:42:41;19.10;58.30
12977;DHT22;6553;48.412;9.514;2023-12-20T11:45:11;19.10;58.30
12977;DHT22;6553;48.412;9.514;2023-12-20T11:47:42;19.10;58.20
12977;DHT22;6553;48.412;9.514;2023-12-20T11:50:09;19.10;58.20
12977;DHT22;6553;48.412;9.514;2023-12-20T11:52:35;19.10;58.20
12977;DHT22;6553;48.412;9.514;2023-12-20T11:55:01;19.10;58.30
12977;DHT22;6553;48.412;9.514;2023-12-20T11:57:29;19.10;58.20
12977;DHT22;6553;48.412;9.514;2023-12-20T11:59:56;19.10;58.20
12977;DHT22;6553;48.412;9.514;2023-12-20T12:02:22;19.10;58.20
12977;DHT22;6553;48.412;9.514;2023-12-20T12:04:49;19.10;58.20
12977;DHT22;6553;48.412;9.514;2023-12-20T12:07:16;19.10;58.20
12977;DHT22;6553;48.412;9.514;2023-12-20T12:09:43;19.10;58.30
12977;DHT22;6553;48.412;9.514;2023-12-20T12:12:10;19.10;58.20
12977;DHT22;6553;48.412;9.514;2023-12-20T12:14:37;19.10;58.20
12977;DHT22;6553;48.412;9.514;2023-12-20T12:17:04;19.10;58.30
12977;DHT22;6553;48.412;9.514;2023-12-20T12:19:30;19.10;58.20
12977;DHT22;6553;48.412;9.514;2023-12-20T12:22:05;19.10;58.20
12977;DHT22;6553;48.412;9.514;2023-12-20T12:24:46;19.10;58.20
12977;DHT22;6553;48.412;9.514;2023-12-20T12:27:13;19.10;58.20
12977;DHT22;6553;48.412;9.514;2023-12-20T12:29:39;19.10;58.30
12977;DHT22;6553;48.412;9.514;2023-12-20T12:32:09;19.10;58.20
12977;DHT22;6553;48.412;9.514;2023-12-20T12:34:35;19.10;58.20
12977;DHT22;6553;48.412;9.514;2023-12-20T12:37:03;19.10;58.30
12977;DHT22;6553;48.412;9.514;2023-12-20T12:39:29;19.10;58.30
12977;DHT22;6553;48.412;9.514;2023-12-20T12:41:56;19.10;58.20
12977;DHT22;6553;48.412;9.514;2023-12-20T12:44:23;19.10;58.20
12977;DHT22;6553;48.412;9.514;2023-12-20T12:46:52;19.10;58.20
12977;DHT22;6553;48.412;9.514;2023-12-20T12:49:21;19.10;58.20
12977;DHT22;6553;48.412;9.514;2023-12-20T12:51:47;19.10;58.20
12977;DHT22;6553;48.412;9.514;2023-12-20T12:54:13;19.10;58.20
12977;DHT22;6553;48.412;9.514;2023-12-20T12:56:41;19.10;58.20
12977;DHT22;6553;48.412;9.514;2023-12-20T12:59:08;19.10;58.30
12977;DHT22;6553;48.412;9.514;2023-12-20T13:01:34;19.10;58.20
12977;DHT22;6553;48.412;9.514;2023-12-20T13:04:00;19.10;58.80
12977;DHT22;6553;48.412;9.514;2023-12-20T13:06:28;19.10;58.20
12977;DHT22;6553;48.412;9.514;2023-12-20T13:08:54;19.10;58.20
12977;DHT22;6553;48.412;9.514;2023-12-20T13:11:20;19.10;58.20
12977;DHT22;6553;48.412;9.514;2023-12-20T13:13:46;19.10;58.30
12977;DHT22;6553;48.412;9.514;2023-12-20T13:16:12;19.10;58.20
12977;DHT22;6553;48.412;9.514;2023-12-20T13:18:38;19.10;58.20
12977;DHT22;6553;48.412;9.514;2023-12-20T13:21:08;19.10;58.10
12977;DHT22;6553;48.412;9.514;2023-12-20T13:23:34;19.10;58.20
12977;DHT22;6553;48.412;9.514;2023-12-20T13:26:00;19.10;58.20
12977;DHT22;6553;48.412;9.514;2023-12-20T13:28:27;19.10;58.20
12977;DHT22;6553;48.412;9.514;2023-12-20T13:30:52;19.10;58.20
12977;DHT22;6553;48.412;9.514;2023-12-20T13:33:18;19.10;58.20
12977;DHT22;6553;48.412;9.514;2023-12-20T13:35:44;19.10;58.30
12977;DHT22;6553;48.412;9.514;2023-12-20T13:38:09;19.10;58.20
12977;DHT22;6553;48.412;9.514;2023-12-20T13:40:35;19.10;58.20
12977;DHT22;6553;48.412;9.514;2023-12-20T13:43:01;19.10;58.20
12977;DHT22;6553;48.412;9.514;2023-12-20T13:45:28;19.10;58.20
12977;DHT22;6553;48.412;9.514;2023-12-20T13:47:54;19.10;58.20
12977;DHT22;6553;48.412;9.514;2023-12-20T13:50:19;19.10;58.20
12977;DHT22;6553;48.412;9.514;2023-12-20T13:52:45;19.10;58.30
12977;DHT22;6553;48.412;9.514;2023-12-20T13:55:11;19.10;58.30
12977;DHT22;6553;48.412;9.514;2023-12-20T13:57:37;19.10;58.20
12977;DHT22;6553;48.412;9.514;2023-12-20T14:00:04;19.10;58.20
12977;DHT22;6553;48.412;9.514;2023-12-20T14:02:32;19.10;58.10
12977;DHT22;6553;48.412;9.514;2023-12-20T14:04:58;19.10;58.20
12977;DHT22;6553;48.412;9.514;2023-12-20T14:07:24;19.10;58.20
12977;DHT22;6553;48.412;9.514;2023-12-20T14:09:49;19.10;58.20
12977;DHT22;6553;48.412;9.514;2023-12-20T14:12:15;19.10;58.20
12977;DHT22;6553;48.412;9.514;2023-12-20T14:14:41;19.10;58.80
12977;DHT22;6553;48.412;9.514;2023-12-20T14:17:06;19.00;58.70
12977;DHT22;6553;48.412;9.514;2023-12-20T14:19:33;19.10;58.30
12977;DHT22;6553;48.412;9.514;2023-12-20T14:21:58;19.10;58.20
12977;DHT22;6553;48.412;9.514;2023-12-20T14:24:28;19.10;58.20
12977;DHT22;6553;48.412;9.514;2023-12-20T14:26:53;19.00;58.10
12977;DHT22;6553;48.412;9.514;2023-12-20T14:29:19;19.00;58.10
12977;DHT22;6553;48.412;9.514;2023-12-20T14:31:45;19.10;58.20
12977;DHT22;6553;48.412;9.514;2023-12-20T14:34:11;19.00;58.10
12977;DHT22;6553;48.412;9.514;2023-12-20T14:36:37;19.00;58.10
12977;DHT22;6553;48.412;9.514;2023-12-20T14:39:03;19.00;58.10
12977;DHT22;6553;48.412;9.514;2023-12-20T14:41:30;19.00;58.10
12977;DHT22;6553;48.412;9.514;2023-12-20T14:43:56;19.00;58.10
12977;DHT22;6553;48.412;9.514;2023-12-20T14:46:22;19.00;58.10
12977;DHT22;6553;48.412;9.514;2023-12-20T14:48:48;19.00;58.10
12977;DHT22;6553;48.412;9.514;2023-12-20T14:51:15;19.00;58.10
12977;DHT22;6553;48.412;9.514;2023-12-20T14:53:41;19.00;58.20
12977;DHT22;6553;48.412;9.514;2023-12-20T14:56:08;19.00;58.20
12977;DHT22;6553;48.412;9.514;2023-12-20T14:58:33;19.00;58.00
12977;DHT22;6553;48.412;9.514;2023-12-20T15:01:00;19.00;58.00
12977;DHT22;6553;48.412;9.514;2023-12-20T15:03:26;19.00;58.10
12977;DHT22;6553;48.412;9.514;2023-12-20T15:05:52;19.00;58.10
12977;DHT22;6553;48.412;9.514;2023-12-20T15:08:18;19.00;58.70
12977;DHT22;6553;48.412;9.514;2023-12-20T15:10:43;19.00;58.00
12977;DHT22;6553;48.412;9.514;2023-12-20T15:13:09;19.00;58.00
12977;DHT22;6553;48.412;9.514;2023-12-20T15:15:35;19.00;58.10
12977;DHT22;6553;48.412;9.514;2023-12-20T15:18:00;19.00;58.00
12977;DHT22;6553;48.412;9.514;2023-12-20T15:20:29;19.00;58.00
12977;DHT22;6553;48.412;9.514;2023-12-20T15:22:55;19.00;58.00
12977;DHT22;6553;48.412;9.514;2023-12-20T15:25:24;19.00;58.00
12977;DHT22;6553;48.412;9.514;2023-12-20T15:27:50;19.00;58.00
12977;DHT22;6553;48.412;9.514;2023-12-20T15:30:19;19.00;57.90
12977;DHT22;6553;48.412;9.514;2023-12-20T15:32:45;19.00;58.00
12977;DHT22;6553;48.412;9.514;2023-12-20T15:35:11;19.00;57.90
12977;DHT22;6553;48.412;9.514;2023-12-20T15:37:38;19.00;57.90
12977;DHT22;6553;48.412;9.514;2023-12-20T15:40:07;19.00;57.90
12977;DHT22;6553;48.412;9.514;2023-12-20T15:42:38;19.00;58.00
12977;DHT22;6553;48.412;9.514;2023-12-20T15:45:05;19.00;58.00
12977;DHT22;6553;48.412;9.514;2023-12-20T15:47:33;19.00;58.00
12977;DHT22;6553;48.412;9.514;2023-12-20T15:50:01;19.00;58.00
12977;DHT22;6553;48.412;9.514;2023-12-20T15:52:27;18.90;57.90
12977;DHT22;6553;48.412;9.514;2023-12-20T15:54:53;18.90;57.90